White Deer, TX (79097)

1:03 PM CDT on July 27, 2016 (GMT -0500)
North Mary Ellen | | Change Station

Elev 3228 ft 35.55 °N, 100.97 °W | Updated 23 seconds ago

Clear
Clear
91.9 °F
Feels Like 91 °F
N
0.2
Wind Variable Wind from NNW
Gusts 2.9 mph

Today
High -- | Low -- °F
--% Chance of Precip.
Yesterday
High -- | Low -- °F
Precip. -- in
Pressure 30.09 in
Visibility 10.0 miles
Clouds Clear
Heat Index 91 °F
Dew Point 59 °F
Humidity 33%
Rainfall 0.00 in
Snow Depth Not available.
6:49 AM 8:52 PM
Last Quarter, 41% visible
METAR KPPA 271755Z AUTO 13005KT 10SM CLR 34/14 A3009 RMK AO2 T03390144 10342 20213 PWINO
Pressure 30.09 in
Visibility 10.0 miles
Clouds Clear
Heat Index 91 °F
Dew Point 59 °F
Humidity 33%
Rainfall 0.00 in
Snow Depth Not available.
6:49 AM 8:52 PM
Last Quarter, 41% visible
METAR KPPA 271755Z AUTO 13005KT 10SM CLR 34/14 A3009 RMK AO2 T03390144 10342 20213 PWINO

10-Day Weather Forecast

Almanac

Astronomy

Jul. 27, 2016 Rise Set
Actual Time
Civil Twilight
Nautical Twilight
Astronomical Twilight
Moon
Length of Visible Light
Length of Day
Tomorrow will be .
, % of the Moon is Illuminated

Today's Extremes

State Highs State Lows

Community

WunderPhotos

Upload Photos

1,927,892 photos uploaded!

WunderBlog® & News

Nearby

Air Quality

  Air Quality AQ Index Pollutant
Not available.

Snow Depth

Station Depth Elevation

Earthquake Activity

City Distance Mag. Time & Date
Minimum magnitude displayed is 2.5.

Coastal Water Temperatures

Place Temperature

Stations

Nearby Weather Stations

Station Location Temp. Windchill Dew Point Humidity Wind Precip. Elev Updated Type
                   

Watches & Warnings

There are currently no watches in effect.